Time;durP1;ratioP1;P1;durP2;ratioP2;P2;SDS_P1;SDS_P2;PMS_P1;PMS_P2;Temp;Humidity;BMP_temperature;BMP_pressure;BME280_temperature;BME280_humidity;BME280_pressure;Samples;Min_cycle;Max_cycle;Signal;HPM_P1;HPM_P2
2021/08/18 00:00:43;;;;;;;2.63;1.95;;;20.70;99.90;;;;;;5014651;28;20500;-74
2021/08/18 00:03:10;;;;;;;3.55;1.70;;;20.80;99.90;;;;;;5013457;28;20058;-75
2021/08/18 00:05:37;;;;;;;1.85;1.42;;;20.90;99.90;;;;;;5028018;28;20080;-73
2021/08/18 00:08:08;;;;;;;2.10;1.33;;;21.00;99.90;;;;;;5011940;28;20105;-72
2021/08/18 00:10:34;;;;;;;2.05;1.50;;;21.00;99.90;;;;;;5022079;28;20514;-73
2021/08/18 00:13:01;;;;;;;5.30;1.45;;;20.90;99.90;;;;;;5032681;28;20040;-73
2021/08/18 00:15:27;;;;;;;4.13;1.80;;;20.90;99.90;;;;;;5032612;28;20484;-72
2021/08/18 00:17:56;;;;;;;3.78;2.42;;;20.80;99.90;;;;;;5028907;28;20049;-73
2021/08/18 00:20:22;;;;;;;2.17;1.98;;;20.90;99.90;;;;;;5032484;28;20557;-73
2021/08/18 00:22:47;;;;;;;3.00;1.95;;;20.90;99.90;;;;;;5024428;28;20034;-73
2021/08/18 00:25:13;;;;;;;3.45;1.52;;;20.90;99.90;;;;;;5011616;28;20123;-73
2021/08/18 00:27:39;;;;;;;4.07;1.40;;;21.00;99.90;;;;;;5023009;28;20029;-72
2021/08/18 00:30:06;;;;;;;6.80;1.63;;;21.00;99.90;;;;;;5031158;28;20025;-73
2021/08/18 00:32:32;;;;;;;2.03;1.63;;;20.80;99.90;;;;;;5028356;28;20032;-75
2021/08/18 00:34:58;;;;;;;2.10;1.90;;;20.80;99.90;;;;;;5031001;28;20022;-74
2021/08/18 00:37:24;;;;;;;1.80;1.27;;;20.90;99.90;;;;;;5016876;28;20619;-73
2021/08/18 00:39:50;;;;;;;6.18;2.22;;;20.90;99.90;;;;;;5011394;28;20030;-73
2021/08/18 00:42:19;;;;;;;2.40;2.10;;;20.90;99.90;;;;;;5011568;28;20029;-72
2021/08/18 00:44:46;;;;;;;3.47;1.90;;;20.90;99.90;;;;;;5015235;28;20021;-73
2021/08/18 00:47:12;;;;;;;2.88;1.40;;;20.80;99.90;;;;;;5029356;28;20136;-73
2021/08/18 00:49:38;;;;;;;2.30;2.10;;;20.60;99.90;;;;;;5031064;28;20026;-73
2021/08/18 00:52:04;;;;;;;3.33;1.85;;;20.70;99.90;;;;;;5032185;28;20041;-72
2021/08/18 00:54:30;;;;;;;2.58;2.08;;;20.60;99.90;;;;;;5031989;28;20025;-72
2021/08/18 00:56:57;;;;;;;2.03;1.55;;;20.50;99.90;;;;;;5024911;28;20025;-72
2021/08/18 00:59:26;;;;;;;3.40;1.95;;;20.40;99.90;;;;;;5029406;28;20064;-72
2021/08/18 01:01:56;;;;;;;2.22;1.42;;;20.30;99.90;;;;;;5020230;28;20037;-73
2021/08/18 01:04:24;;;;;;;3.60;1.58;;;20.30;99.90;;;;;;5033697;28;20025;-73
2021/08/18 01:06:55;;;;;;;2.55;2.00;;;20.50;99.90;;;;;;5022487;28;20492;-73
2021/08/18 01:09:24;;;;;;;7.22;2.80;;;20.60;99.90;;;;;;5013357;28;20087;-74
2021/08/18 01:11:51;;;;;;;2.38;1.77;;;20.70;99.90;;;;;;5012529;28;20037;-73
2021/08/18 01:14:18;;;;;;;2.50;1.80;;;20.60;99.90;;;;;;5019531;28;20021;-73
2021/08/18 01:16:46;;;;;;;2.97;1.42;;;20.50;99.90;;;;;;5032185;28;20053;-73
2021/08/18 01:19:17;;;;;;;2.20;1.58;;;20.50;99.90;;;;;;5031509;28;20021;-72
2021/08/18 01:21:48;;;;;;;4.40;2.15;;;20.30;99.90;;;;;;5030561;28;20034;-73
2021/08/18 01:24:18;;;;;;;4.38;1.52;;;20.40;99.90;;;;;;5031450;28;20030;-73
2021/08/18 01:26:44;;;;;;;4.38;2.03;;;20.50;99.90;;;;;;5020380;28;20404;-72
2021/08/18 01:29:10;;;;;;;1.77;1.48;;;20.50;99.90;;;;;;5011472;28;20096;-73
2021/08/18 01:31:36;;;;;;;2.60;2.10;;;20.60;99.90;;;;;;5011691;28;20117;-72
2021/08/18 01:34:04;;;;;;;6.35;1.75;;;20.60;99.90;;;;;;5010448;28;20101;-72
2021/08/18 01:36:31;;;;;;;3.80;2.13;;;20.50;99.90;;;;;;5010282;28;20018;-73
2021/08/18 01:39:05;;;;;;;4.75;1.30;;;20.40;99.90;;;;;;5026005;28;20042;-72
2021/08/18 01:41:31;;;;;;;4.22;2.25;;;20.20;99.90;;;;;;5011028;28;20088;-72
2021/08/18 01:43:57;;;;;;;2.78;2.30;;;20.30;99.90;;;;;;5019410;28;20546;-71
2021/08/18 01:46:23;;;;;;;2.33;1.73;;;20.20;99.90;;;;;;5011446;28;20068;-73
2021/08/18 01:48:49;;;;;;;3.15;1.90;;;20.20;99.90;;;;;;5011254;28;20033;-72
2021/08/18 01:51:15;;;;;;;1.70;1.50;;;20.10;99.90;;;;;;5016185;28;20033;-74
2021/08/18 01:53:44;;;;;;;2.05;1.80;;;20.20;99.90;;;;;;5029929;28;20117;-73
2021/08/18 01:56:12;;;;;;;7.00;1.92;;;20.10;99.90;;;;;;5030394;28;20049;-73
2021/08/18 01:58:39;;;;;;;2.65;1.85;;;20.10;99.90;;;;;;5029935;28;20022;-73
2021/08/18 02:01:09;;;;;;;5.22;3.22;;;20.20;99.90;;;;;;5013294;28;20030;-73
2021/08/18 02:03:36;;;;;;;2.67;1.63;;;20.30;99.90;;;;;;5010808;28;20084;-72
2021/08/18 02:06:02;;;;;;;2.08;1.65;;;20.40;99.90;;;;;;5011487;28;20389;-73
2021/08/18 02:08:28;;;;;;;2.17;1.80;;;20.50;99.90;;;;;;5011526;28;20025;-73
2021/08/18 02:10:54;;;;;;;2.40;2.20;;;20.50;99.90;;;;;;5023669;28;20516;-73
2021/08/18 02:13:20;;;;;;;5.05;1.67;;;20.70;99.90;;;;;;5009684;28;20026;-73
2021/08/18 02:15:46;;;;;;;6.03;2.55;;;20.80;99.90;;;;;;5010207;28;20058;-71
2021/08/18 02:18:15;;;;;;;4.00;2.20;;;20.80;99.90;;;;;;5011244;28;20030;-73
2021/08/18 02:20:46;;;;;;;2.97;1.42;;;20.80;99.90;;;;;;5009809;28;20025;-72
2021/08/18 02:23:12;;;;;;;3.97;1.57;;;20.70;99.90;;;;;;5011390;28;20022;-73
2021/08/18 02:25:38;;;;;;;2.60;1.55;;;20.70;99.90;;;;;;5009923;28;20263;-72
2021/08/18 02:28:05;;;;;;;2.83;2.08;;;20.70;99.90;;;;;;5011045;28;20445;-73
2021/08/18 02:30:32;;;;;;;4.03;1.77;;;20.80;99.90;;;;;;5009777;28;20076;-73
2021/08/18 02:32:58;;;;;;;4.38;1.98;;;20.70;99.90;;;;;;5009826;28;20078;-73
2021/08/18 02:35:25;;;;;;;4.25;2.35;;;20.60;99.90;;;;;;5009653;28;20026;-72
2021/08/18 02:37:52;;;;;;;2.50;1.67;;;20.60;99.90;;;;;;5011595;28;20029;-72
2021/08/18 02:40:20;;;;;;;5.68;1.73;;;20.60;99.90;;;;;;5018333;28;20333;-73
2021/08/18 02:42:51;;;;;;;2.08;1.58;;;20.50;99.90;;;;;;5009921;28;20072;-74
2021/08/18 02:45:18;;;;;;;5.22;2.13;;;20.50;99.90;;;;;;5013222;28;20101;-73
2021/08/18 02:47:44;;;;;;;3.38;1.92;;;20.60;99.90;;;;;;5024477;28;20041;-73
2021/08/18 02:50:12;;;;;;;1.92;1.80;;;20.50;99.90;;;;;;5011327;28;20464;-73
2021/08/18 02:52:38;;;;;;;3.15;1.70;;;20.40;99.90;;;;;;5009589;28;20420;-72
2021/08/18 02:55:05;;;;;;;4.28;2.30;;;20.50;99.90;;;;;;5009980;28;20122;-74
2021/08/18 02:57:31;;;;;;;2.60;2.13;;;20.50;99.90;;;;;;5030405;28;20080;-73
2021/08/18 02:59:57;;;;;;;6.63;1.63;;;20.50;99.90;;;;;;5020218;28;20480;-73
2021/08/18 03:02:24;;;;;;;2.65;2.28;;;20.60;99.90;;;;;;5025979;28;20030;-73
2021/08/18 03:04:50;;;;;;;6.07;1.90;;;20.60;99.90;;;;;;5028867;28;20041;-74
2021/08/18 03:07:16;;;;;;;3.67;2.60;;;20.50;99.90;;;;;;5017937;28;20030;-75
2021/08/18 03:09:42;;;;;;;4.60;1.70;;;20.60;99.90;;;;;;5010276;28;20076;-72
2021/08/18 03:12:08;;;;;;;4.53;2.13;;;20.60;99.90;;;;;;5010394;28;20030;-72
2021/08/18 03:14:34;;;;;;;1.85;1.75;;;20.70;99.90;;;;;;5010644;28;20021;-72
2021/08/18 03:17:00;;;;;;;2.38;1.85;;;20.70;99.90;;;;;;5009605;28;20025;-72
2021/08/18 03:19:26;;;;;;;3.20;1.85;;;20.70;99.90;;;;;;5011817;28;20392;-73
2021/08/18 03:21:52;;;;;;;6.43;2.53;;;20.60;99.90;;;;;;5021524;28;20061;-73
2021/08/18 03:24:18;;;;;;;2.15;1.73;;;20.60;99.90;;;;;;5014085;28;20022;-73
2021/08/18 03:26:44;;;;;;;3.13;2.30;;;20.50;99.90;;;;;;5030823;28;20033;-73
2021/08/18 03:29:10;;;;;;;1.73;1.63;;;20.50;99.90;;;;;;5034324;28;20077;-72
2021/08/18 03:31:36;;;;;;;2.63;1.83;;;20.60;99.90;;;;;;5032815;28;20519;-73
2021/08/18 03:34:02;;;;;;;3.40;2.03;;;20.50;99.90;;;;;;5021423;28;20022;-72
2021/08/18 03:36:28;;;;;;;3.55;1.98;;;20.50;99.90;;;;;;5030333;28;20028;-73
2021/08/18 03:38:54;;;;;;;2.28;1.70;;;20.50;99.90;;;;;;5033696;28;20021;-73
2021/08/18 03:41:20;;;;;;;5.75;2.28;;;20.50;99.90;;;;;;5041442;28;20075;-73
2021/08/18 03:43:46;;;;;;;2.60;1.85;;;20.50;99.90;;;;;;5042122;28;20026;-73
2021/08/18 03:46:12;;;;;;;2.25;2.03;;;20.60;99.90;;;;;;5036991;28;20030;-74
2021/08/18 03:48:38;;;;;;;2.08;1.88;;;20.60;99.90;;;;;;5027356;28;20029;-73
2021/08/18 03:51:04;;;;;;;4.47;2.42;;;20.60;99.90;;;;;;5016666;28;20525;-72
2021/08/18 03:53:29;;;;;;;5.40;2.05;;;20.50;99.90;;;;;;5013727;28;20045;-72
2021/08/18 03:55:55;;;;;;;4.22;2.13;;;20.50;99.90;;;;;;5012221;28;20127;-72
2021/08/18 03:58:21;;;;;;;2.85;2.22;;;20.60;99.90;;;;;;5013243;28;20508;-73
2021/08/18 04:00:47;;;;;;;3.25;2.25;;;20.60;99.90;;;;;;5029269;28;20033;-73
2021/08/18 04:03:13;;;;;;;3.55;1.92;;;20.60;99.90;;;;;;5032047;28;20033;-73
2021/08/18 04:05:38;;;;;;;4.65;1.83;;;20.50;99.90;;;;;;5018327;28;20100;-73
2021/08/18 04:08:07;;;;;;;7.13;2.88;;;20.70;99.90;;;;;;5013338;28;20036;-73
2021/08/18 04:10:34;;;;;;;3.30;1.50;;;20.70;99.90;;;;;;5026911;28;20030;-73
2021/08/18 04:13:00;;;;;;;2.50;2.10;;;20.80;99.90;;;;;;5031668;28;20025;-72
2021/08/18 04:15:38;;;;;;;3.38;1.90;;;20.80;99.90;;;;;;5031189;28;20060;-73
2021/08/18 04:18:05;;;;;;;3.00;2.67;;;20.80;99.90;;;;;;5015475;28;20026;-73
2021/08/18 04:20:31;;;;;;;3.30;1.90;;;20.80;99.90;;;;;;5015036;28;20108;-74
2021/08/18 04:22:57;;;;;;;4.07;1.92;;;20.80;99.90;;;;;;5012223;28;20065;-74
2021/08/18 04:25:23;;;;;;;3.75;2.75;;;20.80;99.90;;;;;;5012088;28;20052;-73
2021/08/18 04:27:49;;;;;;;5.28;2.30;;;20.80;99.90;;;;;;5013452;28;20096;-73
2021/08/18 04:30:16;;;;;;;6.03;2.22;;;20.80;99.90;;;;;;5012548;28;20030;-73
2021/08/18 04:32:42;;;;;;;5.18;1.95;;;20.90;99.90;;;;;;5024009;28;20029;-73
2021/08/18 04:35:10;;;;;;;5.05;2.28;;;20.90;99.90;;;;;;5012565;28;20026;-73
2021/08/18 04:37:36;;;;;;;2.30;2.03;;;20.90;99.90;;;;;;5029410;28;20029;-72
2021/08/18 04:40:08;;;;;;;3.03;2.17;;;20.80;99.90;;;;;;5032676;28;20025;-73
2021/08/18 04:42:39;;;;;;;2.70;2.20;;;21.00;99.90;;;;;;5029989;28;20451;-73
2021/08/18 04:45:07;;;;;;;7.47;2.28;;;20.90;99.90;;;;;;5029200;28;20124;-73
2021/08/18 04:47:34;;;;;;;8.52;2.35;;;21.00;99.90;;;;;;5013367;28;20049;-74
2021/08/18 04:50:00;;;;;;;4.97;1.70;;;21.10;99.90;;;;;;5014712;28;20037;-73
2021/08/18 04:52:26;;;;;;;6.05;2.80;;;21.10;99.90;;;;;;5013613;28;20030;-73
2021/08/18 04:54:53;;;;;;;3.15;2.10;;;21.20;99.90;;;;;;5026059;28;20094;-74
2021/08/18 04:57:19;;;;;;;6.55;2.80;;;21.20;99.90;;;;;;5011175;28;20026;-72
2021/08/18 04:59:44;;;;;;;4.95;2.33;;;21.10;99.90;;;;;;5030297;28;20076;-73
2021/08/18 05:02:10;;;;;;;7.30;3.40;;;21.10;99.90;;;;;;5012424;28;20030;-74
2021/08/18 05:04:36;;;;;;;5.03;2.10;;;21.20;99.90;;;;;;5011141;28;20037;-73
2021/08/18 05:07:02;;;;;;;5.53;2.63;;;21.30;99.90;;;;;;5013570;28;20064;-74
2021/08/18 05:09:28;;;;;;;4.88;2.65;;;21.30;99.90;;;;;;5014189;28;20026;-70
2021/08/18 05:11:54;;;;;;;2.78;2.08;;;21.30;99.90;;;;;;5012197;28;20026;-71
2021/08/18 05:14:22;;;;;;;9.90;2.88;;;21.40;99.90;;;;;;5012391;28;20100;-71
2021/08/18 05:16:48;;;;;;;4.20;2.60;;;21.50;99.90;;;;;;5012282;28;20029;-72
2021/08/18 05:19:14;;;;;;;4.47;2.70;;;21.40;99.90;;;;;;5018549;28;20022;-72
2021/08/18 05:21:40;;;;;;;4.32;2.45;;;21.20;99.90;;;;;;5031421;28;20037;-73
2021/08/18 05:24:06;;;;;;;3.17;2.60;;;21.00;99.90;;;;;;5030546;28;20491;-73
2021/08/18 05:26:31;;;;;;;5.53;2.47;;;20.90;99.90;;;;;;5032401;28;20032;-72
2021/08/18 05:28:57;;;;;;;4.65;3.05;;;21.00;99.90;;;;;;5029032;28;20597;-75
2021/08/18 05:31:23;;;;;;;2.45;2.25;;;21.10;99.90;;;;;;5031714;28;20029;-72
2021/08/18 05:33:49;;;;;;;4.00;3.05;;;21.10;99.90;;;;;;5030311;28;20424;-73
2021/08/18 05:36:15;;;;;;;3.78;2.25;;;21.10;99.90;;;;;;5017539;28;20034;-74
2021/08/18 05:38:41;;;;;;;2.47;2.22;;;21.30;99.90;;;;;;5010208;28;20183;-73
2021/08/18 05:41:06;;;;;;;9.93;3.35;;;21.10;99.90;;;;;;5010311;28;20532;-73
2021/08/18 05:43:32;;;;;;;7.57;2.90;;;21.20;99.90;;;;;;5017859;28;20025;-73
2021/08/18 05:45:58;;;;;;;2.97;2.70;;;21.40;99.90;;;;;;5029457;28;20021;-76
2021/08/18 05:48:23;;;;;;;3.00;2.70;;;21.40;99.90;;;;;;5019760;28;20124;-73
2021/08/18 05:50:49;;;;;;;6.03;2.47;;;21.50;99.90;;;;;;5029916;28;20108;-74
2021/08/18 05:53:18;;;;;;;3.83;3.50;;;21.50;99.90;;;;;;5030866;28;20197;-74
2021/08/18 05:55:48;;;;;;;3.25;2.45;;;21.50;99.90;;;;;;5031162;28;20024;-73
2021/08/18 05:58:15;;;;;;;3.40;2.50;;;21.50;99.90;;;;;;5031621;28;20018;-73
2021/08/18 06:00:41;;;;;;;6.30;2.80;;;21.50;99.90;;;;;;5030892;28;20064;-74
2021/08/18 06:03:07;;;;;;;4.85;2.42;;;21.50;99.90;;;;;;5016711;28;20476;-74
2021/08/18 06:05:33;;;;;;;4.18;2.42;;;21.60;99.90;;;;;;5009954;28;20061;-74
2021/08/18 06:07:58;;;;;;;6.82;2.17;;;21.70;99.90;;;;;;5009739;28;20030;-74
2021/08/18 06:10:24;;;;;;;6.18;2.08;;;21.70;99.90;;;;;;5011504;28;20033;-74
2021/08/18 06:12:50;;;;;;;6.30;2.85;;;21.40;99.90;;;;;;5009988;28;20026;-74
2021/08/18 06:15:17;;;;;;;4.93;2.45;;;21.60;99.90;;;;;;5010746;28;20037;-73
2021/08/18 06:17:46;;;;;;;3.90;2.55;;;21.70;99.90;;;;;;5014607;28;20053;-73
2021/08/18 06:20:13;;;;;;;2.92;2.42;;;21.70;99.90;;;;;;5011669;28;20107;-74
2021/08/18 06:22:39;;;;;;;3.53;2.33;;;21.60;99.90;;;;;;5009815;28;20053;-74
2021/08/18 06:25:06;;;;;;;7.68;3.08;;;21.60;99.90;;;;;;5011686;28;20461;-74
2021/08/18 06:27:32;;;;;;;4.43;2.30;;;21.80;99.90;;;;;;5013866;28;20040;-73
2021/08/18 06:29:59;;;;;;;3.83;2.38;;;21.60;99.90;;;;;;5028051;28;20025;-72
2021/08/18 06:32:25;;;;;;;3.42;3.13;;;21.60;99.90;;;;;;5029284;28;20025;-73
2021/08/18 06:34:53;;;;;;;6.05;2.45;;;21.60;99.90;;;;;;5029535;28;20025;-74
2021/08/18 06:37:20;;;;;;;6.53;3.17;;;21.50;99.90;;;;;;5028833;28;20060;-75
2021/08/18 06:39:46;;;;;;;5.03;2.38;;;21.60;99.90;;;;;;5028880;28;20365;-76
2021/08/18 06:42:12;;;;;;;4.45;1.50;;;21.60;99.90;;;;;;5030491;28;20033;-75
2021/08/18 06:44:38;;;;;;;4.13;2.08;;;21.50;99.90;;;;;;5031606;28;20037;-75
2021/08/18 06:47:05;;;;;;;4.22;2.92;;;21.50;99.90;;;;;;5020310;28;20030;-74
2021/08/18 06:49:32;;;;;;;4.03;2.58;;;21.50;99.90;;;;;;5025030;28;20021;-73
2021/08/18 06:51:57;;;;;;;3.78;2.47;;;21.60;99.90;;;;;;5041262;28;20052;-72
2021/08/18 06:54:23;;;;;;;3.60;2.28;;;21.70;99.90;;;;;;5034514;28;20033;-73
2021/08/18 06:56:49;;;;;;;6.13;2.40;;;21.90;99.90;;;;;;5028814;28;20056;-72
2021/08/18 06:59:15;;;;;;;3.72;2.20;;;21.80;99.90;;;;;;5028340;28;20029;-71
2021/08/18 07:01:42;;;;;;;6.75;2.50;;;21.80;99.90;;;;;;5030250;28;20676;-70
2021/08/18 07:04:08;;;;;;;2.47;2.10;;;21.80;99.90;;;;;;5013105;28;20080;-72
2021/08/18 07:06:34;;;;;;;2.20;2.00;;;22.00;99.90;;;;;;5019324;28;20030;-72
2021/08/18 07:09:00;;;;;;;9.07;3.03;;;22.00;99.90;;;;;;5016667;28;20021;-71
2021/08/18 07:11:27;;;;;;;6.65;4.05;;;22.10;99.90;;;;;;5022703;28;20495;-71
2021/08/18 07:13:58;;;;;;;3.42;2.20;;;22.30;99.90;;;;;;5012548;28;20037;-71
2021/08/18 07:16:28;;;;;;;6.00;2.65;;;22.30;99.90;;;;;;5019044;28;20018;-70
2021/08/18 07:18:58;;;;;;;2.53;2.28;;;22.10;99.90;;;;;;5020514;28;20503;-73
2021/08/18 07:21:24;;;;;;;4.80;2.80;;;22.10;99.90;;;;;;5022906;28;20042;-74
2021/08/18 07:23:54;;;;;;;5.38;2.30;;;22.30;99.90;;;;;;5021505;28;20041;-70
2021/08/18 07:26:24;;;;;;;3.80;3.50;;;22.40;99.90;;;;;;5018198;28;20026;-71
2021/08/18 07:28:50;;;;;;;3.42;2.95;;;22.50;99.90;;;;;;5010816;28;20206;-69
2021/08/18 07:31:16;;;;;;;3.10;2.13;;;22.40;99.90;;;;;;5009631;28;20491;-72
2021/08/18 07:33:42;;;;;;;3.45;3.15;;;22.50;99.90;;;;;;5011051;28;20045;-73
2021/08/18 07:36:08;;;;;;;6.65;2.83;;;22.70;99.90;;;;;;5011068;28;20704;-69
2021/08/18 07:38:34;;;;;;;4.85;2.70;;;22.70;99.90;;;;;;5016970;28;20045;-70
2021/08/18 07:40:59;;;;;;;2.67;2.38;;;22.80;99.90;;;;;;5019491;28;20026;-71
2021/08/18 07:43:25;;;;;;;4.90;2.20;;;22.90;99.90;;;;;;5011319;28;20022;-69
2021/08/18 07:45:51;;;;;;;3.75;2.55;;;23.00;99.90;;;;;;5010466;28;20033;-70
2021/08/18 07:48:17;;;;;;;5.22;2.78;;;23.20;99.90;;;;;;5010126;28;20110;-73
2021/08/18 07:50:43;;;;;;;7.57;2.58;;;23.30;99.90;;;;;;5027863;28;20029;-68
2021/08/18 07:53:08;;;;;;;3.03;2.47;;;23.40;99.90;;;;;;5030360;28;20030;-70
2021/08/18 07:55:34;;;;;;;3.20;2.80;;;23.30;99.90;;;;;;5030350;28;20060;-70
2021/08/18 07:58:00;;;;;;;2.80;2.38;;;23.20;99.90;;;;;;5029741;28;20026;-71
2021/08/18 08:00:26;;;;;;;4.75;2.40;;;23.10;99.90;;;;;;5029169;28;20030;-69
2021/08/18 08:02:51;;;;;;;4.18;1.85;;;23.10;99.90;;;;;;5018970;28;20117;-71
2021/08/18 08:05:17;;;;;;;9.15;2.28;;;23.20;99.90;;;;;;5008795;28;20053;-71
2021/08/18 08:07:44;;;;;;;3.13;2.53;;;23.30;99.90;;;;;;5018174;28;20045;-76
2021/08/18 08:10:11;;;;;;;4.75;2.20;;;23.20;99.90;;;;;;5019096;28;20093;-73
2021/08/18 08:12:38;;;;;;;3.97;2.67;;;23.00;99.90;;;;;;5022224;28;20112;-71
2021/08/18 08:15:06;;;;;;;6.45;2.88;;;23.20;99.90;;;;;;5020276;28;20488;-71
2021/08/18 08:17:31;;;;;;;2.85;2.33;;;23.40;99.90;;;;;;5030611;28;20029;-71
2021/08/18 08:19:57;;;;;;;4.95;2.42;;;23.30;99.90;;;;;;5021609;28;20087;-71
2021/08/18 08:22:23;;;;;;;3.47;1.88;;;23.40;99.90;;;;;;5014276;28;20042;-72
2021/08/18 08:24:49;;;;;;;3.72;2.33;;;23.30;99.90;;;;;;5011977;28;20110;-72
2021/08/18 08:27:15;;;;;;;3.03;2.15;;;23.50;99.90;;;;;;5012792;28;20061;-71
2021/08/18 08:29:40;;;;;;;3.30;2.00;;;23.70;99.90;;;;;;5011597;28;20112;-72
2021/08/18 08:32:07;;;;;;;3.92;2.50;;;23.60;99.90;;;;;;5013400;28;20030;-71
2021/08/18 08:34:33;;;;;;;4.47;1.67;;;23.60;99.90;;;;;;5013772;28;20108;-71
2021/08/18 08:36:59;;;;;;;6.63;2.58;;;23.60;99.90;;;;;;5012036;28;20109;-72
2021/08/18 08:39:25;;;;;;;4.50;2.50;;;23.60;99.90;;;;;;5013586;28;20054;-72
2021/08/18 08:41:51;;;;;;;2.47;2.28;;;23.70;99.90;;;;;;5011926;28;20045;-71
2021/08/18 08:44:18;;;;;;;4.03;2.35;;;23.90;99.90;;;;;;5023635;28;20447;-72
2021/08/18 08:46:52;;;;;;;2.42;1.92;;;24.00;99.90;;;;;;5031553;28;20076;-72
2021/08/18 08:49:20;;;;;;;3.20;2.22;;;24.10;99.90;;;;;;5031319;28;20029;-71
2021/08/18 08:51:48;;;;;;;3.60;2.40;;;24.30;99.90;;;;;;5032818;28;20040;-71
2021/08/18 08:54:15;;;;;;;4.72;2.58;;;24.50;99.90;;;;;;5031827;28;20102;-71
2021/08/18 08:56:41;;;;;;;3.80;2.75;;;24.70;99.90;;;;;;5027794;28;20030;-71
2021/08/18 08:59:07;;;;;;;5.30;2.47;;;24.90;99.90;;;;;;5011733;28;20037;-72
2021/08/18 09:01:58;;;;;;;6.22;3.25;;;25.00;99.90;;;;;;5011656;28;20108;-71
2021/08/18 09:04:33;;;;;;;4.63;2.37;;;24.90;99.90;;;;;;5011727;28;20026;-72
2021/08/18 09:07:21;;;;;;;4.05;3.00;;;24.80;99.90;;;;;;5012994;28;20269;-72
2021/08/18 09:09:55;;;;;;;3.08;2.22;;;25.10;99.90;;;;;;5012782;28;20084;-72
2021/08/18 09:12:30;;;;;;;2.30;1.63;;;25.10;99.90;;;;;;5012577;28;20021;-71
2021/08/18 09:14:55;;;;;;;5.07;3.22;;;25.00;99.70;;;;;;5011491;28;20109;-72
2021/08/18 09:17:36;;;;;;;4.45;2.67;;;25.10;99.90;;;;;;5012865;28;20069;-69
2021/08/18 09:20:17;;;;;;;6.93;5.57;;;25.00;99.30;;;;;;5011588;28;20555;-71
2021/08/18 09:22:54;;;;;;;2.95;2.28;;;25.00;99.60;;;;;;5022223;28;20033;-71
2021/08/18 09:25:35;;;;;;;4.63;2.08;;;25.00;99.30;;;;;;5032219;28;20380;-71
2021/08/18 09:28:00;;;;;;;3.28;2.28;;;24.80;99.20;;;;;;5032132;28;20479;-71
2021/08/18 09:30:29;;;;;;;2.75;2.55;;;24.80;99.20;;;;;;5032264;28;20067;-71
2021/08/18 09:32:58;;;;;;;3.78;2.10;;;24.80;99.10;;;;;;5030876;28;20128;-72
2021/08/18 09:35:27;;;;;;;6.93;2.28;;;24.80;99.20;;;;;;5029621;28;20510;-71
2021/08/18 09:37:54;;;;;;;2.95;2.17;;;24.90;99.20;;;;;;5031363;28;20130;-72
2021/08/18 09:40:35;;;;;;;2.60;2.25;;;25.00;99.00;;;;;;5030692;28;20512;-71
2021/08/18 09:43:16;;;;;;;5.63;2.63;;;25.20;98.80;;;;;;5031568;28;20025;-71
2021/08/18 09:45:47;;;;;;;6.13;2.50;;;25.10;98.70;;;;;;5030771;28;20079;-71
2021/08/18 09:48:19;;;;;;;7.73;3.00;;;25.40;99.10;;;;;;5030111;28;20029;-71
2021/08/18 09:50:54;;;;;;;3.22;2.55;;;25.50;99.20;;;;;;5031354;28;20502;-71
2021/08/18 09:53:24;;;;;;;4.55;2.67;;;25.60;99.70;;;;;;5011811;28;20088;-72
2021/08/18 09:56:09;;;;;;;2.83;2.45;;;25.50;99.90;;;;;;5010442;28;20021;-72
2021/08/18 09:58:36;;;;;;;3.22;2.97;;;25.80;99.80;;;;;;5011506;28;20045;-72
2021/08/18 10:01:05;;;;;;;4.10;2.65;;;25.80;99.90;;;;;;5011851;28;20115;-72
2021/08/18 10:03:32;;;;;;;11.02;3.58;;;25.80;99.90;;;;;;5011907;28;20038;-74
2021/08/18 10:05:58;;;;;;;2.92;2.45;;;25.80;99.90;;;;;;5011833;28;20425;-72
2021/08/18 10:08:24;;;;;;;5.18;3.03;;;25.70;99.90;;;;;;5011379;28;20032;-72
2021/08/18 10:10:52;;;;;;;2.85;2.30;;;25.70;99.90;;;;;;5030151;28;20122;-71
2021/08/18 10:13:18;;;;;;;4.68;2.78;;;25.90;99.50;;;;;;5029997;28;20017;-71
2021/08/18 10:15:44;;;;;;;3.50;2.72;;;26.20;98.80;;;;;;5029926;28;20120;-72
2021/08/18 10:18:11;;;;;;;5.18;2.83;;;26.30;99.10;;;;;;5031784;28;20029;-72
2021/08/18 10:20:38;;;;;;;2.70;2.20;;;26.20;99.50;;;;;;5024691;28;20507;-72
2021/08/18 10:23:13;;;;;;;3.20;2.90;;;26.10;99.30;;;;;;5010869;28;20124;-70
2021/08/18 10:25:48;;;;;;;3.55;2.45;;;26.10;99.70;;;;;;5011625;28;20092;-72
2021/08/18 10:28:18;;;;;;;2.85;2.55;;;25.90;99.30;;;;;;5009998;28;20026;-72
2021/08/18 10:30:48;;;;;;;3.70;2.88;;;25.90;99.50;;;;;;5026705;28;20481;-73
2021/08/18 10:33:50;;;;;;;5.80;2.80;;;25.80;99.60;;;;;;5013619;28;20026;-72
2021/08/18 10:36:41;;;;;;;4.00;2.72;;;26.00;99.50;;;;;;5010687;28;20029;-73
2021/08/18 10:39:19;;;;;;;3.33;2.80;;;26.10;99.10;;;;;;5011624;28;20034;-72
2021/08/18 10:42:03;;;;;;;5.30;2.97;;;26.10;99.60;;;;;;5011735;28;20396;-71
2021/08/18 10:44:37;;;;;;;4.38;2.90;;;26.10;99.90;;;;;;5011424;28;20105;-73
2021/08/18 10:47:33;;;;;;;4.68;2.15;;;26.10;99.60;;;;;;5012274;28;20029;-71
2021/08/18 10:50:23;;;;;;;3.67;2.70;;;26.20;98.90;;;;;;5024986;28;20040;-69
2021/08/18 10:52:53;;;;;;;4.32;2.45;;;26.20;99.00;;;;;;5013431;28;20148;-71
2021/08/18 10:55:25;;;;;;;2.67;2.30;;;26.20;99.50;;;;;;5030796;28;20490;-71
2021/08/18 10:57:52;;;;;;;2.80;2.42;;;26.30;99.10;;;;;;5014053;28;20040;-70
2021/08/18 11:00:22;;;;;;;2.90;2.58;;;26.40;99.70;;;;;;5012990;28;20034;-71
2021/08/18 11:03:07;;;;;;;4.22;2.88;;;26.60;98.50;;;;;;5012559;28;20057;-69
2021/08/18 11:05:39;;;;;;;3.38;2.45;;;26.40;98.00;;;;;;5012696;28;20536;-69
2021/08/18 11:08:23;;;;;;;2.88;2.50;;;26.20;97.80;;;;;;5026016;28;20456;-69
2021/08/18 11:10:55;;;;;;;3.15;2.55;;;26.10;98.30;;;;;;5031020;28;20061;-71
2021/08/18 11:13:37;;;;;;;3.90;2.60;;;26.30;98.60;;;;;;5031147;28;20030;-70
2021/08/18 11:16:25;;;;;;;6.47;2.55;;;26.50;98.40;;;;;;5029507;28;20045;-69
2021/08/18 11:18:56;;;;;;;2.75;2.38;;;26.40;98.40;;;;;;5027118;28;20018;-69
2021/08/18 11:21:25;;;;;;;4.95;3.47;;;26.60;98.80;;;;;;5028832;28;20109;-69
2021/08/18 11:23:54;;;;;;;2.50;2.30;;;26.60;98.20;;;;;;5028499;28;20037;-68
2021/08/18 11:26:22;;;;;;;5.90;2.67;;;26.40;97.90;;;;;;5030605;28;20060;-69
2021/08/18 11:28:56;;;;;;;4.85;2.63;;;26.50;98.30;;;;;;5032021;28;20094;-70
2021/08/18 11:31:31;;;;;;;6.70;2.53;;;26.40;98.00;;;;;;5019224;28;20041;-69
2021/08/18 11:33:57;;;;;;;2.90;2.67;;;26.30;98.00;;;;;;5013777;28;20053;-69
2021/08/18 11:36:24;;;;;;;2.80;2.60;;;26.40;98.00;;;;;;5027493;28;20037;-70
2021/08/18 11:39:01;;;;;;;8.32;2.97;;;26.50;97.20;;;;;;5026126;28;20072;-69
2021/08/18 11:41:40;;;;;;;2.35;2.15;;;26.90;97.20;;;;;;5014685;28;20100;-70
2021/08/18 11:44:06;;;;;;;7.68;3.03;;;26.90;96.60;;;;;;5013846;28;20109;-68
2021/08/18 11:46:32;;;;;;;2.58;2.28;;;26.90;96.90;;;;;;5024654;28;20033;-69
2021/08/18 11:49:08;;;;;;;3.47;2.63;;;27.00;96.80;;;;;;5014008;28;20030;-68
2021/08/18 11:51:35;;;;;;;3.67;2.88;;;26.80;95.80;;;;;;5014348;28;20052;-69
2021/08/18 11:54:02;;;;;;;2.78;2.17;;;26.70;96.50;;;;;;5014109;28;20022;-70
2021/08/18 11:56:29;;;;;;;2.55;1.73;;;26.80;97.00;;;;;;5014040;28;20375;-68
2021/08/18 11:59:00;;;;;;;2.40;2.05;;;26.70;95.00;;;;;;5030782;28;20484;-68
2021/08/18 12:01:26;;;;;;;4.90;3.83;;;26.70;96.30;;;;;;5032858;28;20064;-72
2021/08/18 12:03:53;;;;;;;3.85;3.40;;;27.00;96.30;;;;;;5033652;28;20026;-73
2021/08/18 12:06:29;;;;;;;6.07;2.90;;;27.10;95.90;;;;;;5030841;28;20372;-70
2021/08/18 12:08:55;;;;;;;3.05;2.80;;;27.20;95.70;;;;;;5033497;28;20100;-68
2021/08/18 12:11:34;;;;;;;3.53;2.92;;;27.10;96.20;;;;;;5032138;28;20125;-69
2021/08/18 12:14:18;;;;;;;6.13;4.00;;;27.20;96.10;;;;;;5032171;28;20018;-70
2021/08/18 12:16:55;;;;;;;6.30;3.20;;;27.40;96.00;;;;;;5030789;28;20049;-70
2021/08/18 12:19:26;;;;;;;4.15;2.08;;;27.60;95.40;;;;;;5030749;28;20030;-71
2021/08/18 12:22:13;;;;;;;5.93;4.53;;;27.50;94.50;;;;;;5033355;28;20040;-70
2021/08/18 12:24:41;;;;;;;2.95;2.60;;;27.40;94.80;;;;;;5016571;28;20104;-70
2021/08/18 12:27:09;;;;;;;3.60;3.30;;;27.40;94.70;;;;;;5011999;28;20036;-71
2021/08/18 12:29:37;;;;;;;2.40;2.17;;;27.60;94.70;;;;;;5012022;28;20054;-71
2021/08/18 12:32:07;;;;;;;3.08;2.22;;;27.50;94.20;;;;;;5012692;28;20075;-69
2021/08/18 12:34:39;;;;;;;4.13;2.13;;;27.50;95.40;;;;;;5013391;28;20053;-70
2021/08/18 12:37:14;;;;;;;3.28;2.97;;;27.60;95.10;;;;;;5017622;28;20021;-71
2021/08/18 12:39:57;;;;;;;4.65;3.17;;;27.70;94.60;;;;;;5012772;28;20033;-71
2021/08/18 12:42:41;;;;;;;4.03;2.83;;;27.50;94.90;;;;;;5013335;28;20045;-72
2021/08/18 12:45:25;;;;;;;2.95;2.55;;;27.60;95.00;;;;;;5013859;28;20080;-72
2021/08/18 12:47:54;;;;;;;3.72;2.30;;;27.50;94.90;;;;;;5031411;28;20044;-73
2021/08/18 12:50:39;;;;;;;4.18;2.80;;;27.50;94.80;;;;;;5032811;28;20539;-73
2021/08/18 12:53:08;;;;;;;2.97;2.78;;;27.70;95.00;;;;;;5031428;28;20034;-73
2021/08/18 12:55:34;;;;;;;2.53;2.30;;;27.90;94.80;;;;;;5032800;28;20022;-73